createdAt,value
2023-04-17T00:00:32.911Z,96517.56
2023-04-17T00:03:01.540Z,96510.03
2023-04-17T00:05:31.787Z,96511.47
2023-04-17T00:08:00.237Z,96511.72
2023-04-17T00:10:27.767Z,96500.91
2023-04-17T00:12:55.255Z,96508.13
2023-04-17T00:15:24.157Z,96500.31
2023-04-17T00:17:51.656Z,96500.03
2023-04-17T00:20:19.185Z,96508.66
2023-04-17T00:22:46.655Z,96511.31
2023-04-17T00:25:14.995Z,96512.56
2023-04-17T00:27:43.033Z,96512.13
2023-04-17T00:30:11.242Z,96492.81
2023-04-17T00:32:40.065Z,96493.34
2023-04-17T00:35:08.396Z,96509.75
2023-04-17T00:37:36.277Z,96495.69
2023-04-17T00:40:04.117Z,96499.69
2023-04-17T00:42:31.582Z,96505.38
2023-04-17T00:44:59.073Z,96505.78
2023-04-17T00:47:26.854Z,96506.13
2023-04-17T00:49:55.688Z,96508.94
2023-04-17T00:52:29.588Z,96511.56
2023-04-17T00:54:58.644Z,96510.28
2023-04-17T00:57:26.414Z,96505.81
2023-04-17T00:59:55.344Z,96501.84
2023-04-17T01:02:23.025Z,96499.84
2023-04-17T01:04:50.542Z,96503.63
2023-04-17T01:07:19.363Z,96504.25
2023-04-17T01:09:46.858Z,96496.41
2023-04-17T01:12:18.802Z,96495.94
2023-04-17T01:14:46.344Z,96493.84
2023-04-17T01:17:15.352Z,96494.09
2023-04-17T01:19:42.989Z,96494.34
2023-04-17T01:22:10.459Z,96491.94
2023-04-17T01:24:39.680Z,96495.25
2023-04-17T01:27:07.699Z,96494.31
2023-04-17T01:29:35.598Z,96493.31
2023-04-17T01:32:03.064Z,96495.88
2023-04-17T01:34:30.523Z,96504.66
2023-04-17T01:36:58.075Z,96498.53
2023-04-17T01:39:25.728Z,96494.09
2023-04-17T01:41:54.568Z,96495.84
2023-04-17T01:44:22.132Z,96494.56
2023-04-17T01:46:49.610Z,96495.00
2023-04-17T01:49:17.329Z,96491.41
2023-04-17T01:51:44.815Z,96486.00
2023-04-17T01:54:12.309Z,96492.25
2023-04-17T01:56:39.781Z,96488.19
2023-04-17T01:59:08.610Z,96481.84
2023-04-17T02:01:36.930Z,96472.41
2023-04-17T02:04:04.724Z,96473.09
2023-04-17T02:06:32.580Z,96472.53
2023-04-17T02:09:00.209Z,96473.53
2023-04-17T02:11:27.669Z,96484.47
2023-04-17T02:13:55.153Z,96480.72
2023-04-17T02:16:24.172Z,96480.81
2023-04-17T02:18:52.529Z,96489.63
2023-04-17T02:21:19.982Z,96481.59
2023-04-17T02:23:47.508Z,96482.91
2023-04-17T02:26:15.052Z,96489.81
2023-04-17T02:28:44.762Z,96491.84
2023-04-17T02:31:13.275Z,96486.72
2023-04-17T02:33:42.149Z,96501.81
2023-04-17T02:36:10.312Z,96492.38
2023-04-17T02:38:37.814Z,96496.25
2023-04-17T02:41:06.203Z,96494.34
2023-04-17T02:43:33.661Z,96502.38
2023-04-17T02:46:01.411Z,96497.34
2023-04-17T02:48:28.931Z,96489.72
2023-04-17T02:50:57.801Z,96485.19
2023-04-17T02:53:25.356Z,96484.22
2023-04-17T02:55:52.832Z,96482.44
2023-04-17T02:58:20.302Z,96483.38
2023-04-17T03:00:47.882Z,96497.09
2023-04-17T03:03:15.663Z,96494.72
2023-04-17T03:05:43.485Z,96489.38
2023-04-17T03:08:12.277Z,96501.56
2023-04-17T03:10:39.720Z,96489.84
2023-04-17T03:13:07.176Z,96495.13
2023-04-17T03:15:36.247Z,96504.34
2023-04-17T03:18:03.746Z,96508.31
2023-04-17T03:20:31.245Z,96498.53
2023-04-17T03:22:58.688Z,96499.53
2023-04-17T03:25:27.595Z,96504.63
2023-04-17T03:27:56.367Z,96499.22
2023-04-17T03:30:23.909Z,96494.78
2023-04-17T03:32:51.412Z,96494.22
2023-04-17T03:35:19.007Z,96490.34
2023-04-17T03:37:46.633Z,96491.59
2023-04-17T03:40:14.315Z,96492.00
2023-04-17T03:42:43.150Z,96492.28
2023-04-17T03:45:11.515Z,96491.03
2023-04-17T03:47:39.027Z,96491.59
2023-04-17T03:50:07.716Z,96497.38
2023-04-17T03:52:35.181Z,96497.75
2023-04-17T03:55:02.706Z,96495.84
2023-04-17T03:57:30.170Z,96501.16
2023-04-17T03:59:58.946Z,96505.25
2023-04-17T04:02:26.554Z,96506.41
2023-04-17T04:04:54.258Z,96523.56
2023-04-17T04:07:21.828Z,96515.19
2023-04-17T04:09:49.302Z,96517.63
2023-04-17T04:12:16.744Z,96527.34
2023-04-17T04:14:44.204Z,96523.41
2023-04-17T04:17:13.011Z,96523.16
2023-04-17T04:19:40.565Z,96516.81
2023-04-17T04:22:08.008Z,96531.81
2023-04-17T04:24:35.527Z,96534.56
2023-04-17T04:27:05.228Z,96538.09
2023-04-17T04:29:33.087Z,96534.38
2023-04-17T04:32:01.075Z,96538.88
2023-04-17T04:34:30.186Z,96540.69
2023-04-17T04:36:57.728Z,96546.50
2023-04-17T04:39:25.269Z,96549.78
2023-04-17T04:41:53.312Z,96550.19
2023-04-17T04:44:21.268Z,96549.16
2023-04-17T04:46:48.811Z,96544.13
2023-04-17T04:49:16.288Z,96547.22
2023-04-17T04:51:45.344Z,96544.34
2023-04-17T04:54:12.822Z,96545.84
2023-04-17T04:56:40.407Z,96549.22
2023-04-17T04:59:07.876Z,96554.94
2023-04-17T05:01:36.024Z,96563.19
2023-04-17T05:04:03.807Z,96564.47
2023-04-17T05:06:31.420Z,96567.88
2023-04-17T05:09:00.754Z,96560.75
2023-04-17T05:11:28.253Z,96568.59
2023-04-17T05:13:55.704Z,96566.72
2023-04-17T05:16:23.209Z,96575.41
2023-04-17T05:18:50.655Z,96574.00
2023-04-17T05:21:18.129Z,96579.00
2023-04-17T05:23:45.609Z,96579.38
2023-04-17T05:26:14.386Z,96579.91
2023-04-17T05:28:41.868Z,96590.19
2023-04-17T05:31:09.412Z,96589.47
2023-04-17T05:33:36.923Z,96583.00
2023-04-17T05:36:04.717Z,96586.47
2023-04-17T05:38:32.517Z,96589.47
2023-04-17T05:41:01.639Z,96594.06
2023-04-17T05:43:30.444Z,96602.25
2023-04-17T05:45:57.939Z,96602.63
2023-04-17T05:48:25.451Z,96605.22
2023-04-17T05:50:52.976Z,96608.16
2023-04-17T05:53:20.660Z,96608.78
2023-04-17T05:55:48.113Z,96601.88
2023-04-17T06:00:47.511Z,96582.06
2023-04-17T06:03:18.142Z,96583.38
2023-04-17T06:05:46.976Z,96582.78
2023-04-17T06:08:14.654Z,96583.38
2023-04-17T06:10:42.251Z,96571.97
2023-04-17T06:13:09.807Z,96570.81
2023-04-17T06:15:37.247Z,96559.38
2023-04-17T06:18:06.382Z,96559.34
2023-04-17T06:20:33.887Z,96564.44
2023-04-17T06:23:01.651Z,96561.94
2023-04-17T06:25:29.168Z,96559.97
2023-04-17T06:27:56.618Z,96564.19
2023-04-17T06:30:24.142Z,96561.38
2023-04-17T06:32:51.679Z,96552.88
2023-04-17T06:35:20.677Z,96560.09
2023-04-17T06:37:48.207Z,96550.44
2023-04-17T06:40:15.693Z,96557.69
2023-04-17T06:42:43.215Z,96563.31
2023-04-17T06:45:11.499Z,96561.31
2023-04-17T06:47:39.057Z,96565.91
2023-04-17T06:50:08.096Z,96561.78
2023-04-17T06:52:36.907Z,96568.81
2023-04-17T06:55:04.631Z,96564.06
2023-04-17T06:57:33.880Z,96563.41
2023-04-17T07:00:01.371Z,96554.78
2023-04-17T07:02:29.037Z,96554.44
2023-04-17T07:04:56.806Z,96566.78
2023-04-17T07:07:24.461Z,96563.38
2023-04-17T07:09:53.279Z,96568.78
2023-04-17T07:12:20.805Z,96564.91
2023-04-17T07:14:48.274Z,96569.50
2023-04-17T07:17:15.945Z,96569.28
2023-04-17T07:19:43.407Z,96572.06
2023-04-17T07:22:11.026Z,96584.84
2023-04-17T07:24:38.465Z,96577.47
2023-04-17T07:27:07.600Z,96579.78
2023-04-17T07:29:35.381Z,96588.56
2023-04-17T07:32:03.528Z,96572.72
2023-04-17T07:34:32.780Z,96572.06
2023-04-17T07:37:00.386Z,96574.91
2023-04-17T07:39:31.465Z,96585.59
2023-04-17T07:41:58.951Z,96576.97
2023-04-17T07:44:27.747Z,96585.31
2023-04-17T07:46:55.826Z,96588.22
2023-04-17T07:49:23.403Z,96586.59
2023-04-17T07:51:50.890Z,96589.41
2023-04-17T07:54:18.345Z,96591.94
2023-04-17T07:56:47.064Z,96586.91
2023-04-17T07:59:14.606Z,96584.47
2023-04-17T08:01:43.483Z,96585.38
2023-04-17T08:04:11.329Z,96589.19
2023-04-17T08:06:39.017Z,96596.91
2023-04-17T08:09:07.095Z,96596.41
2023-04-17T08:11:40.144Z,96594.25
2023-04-17T08:14:15.419Z,96598.31
2023-04-17T08:16:44.350Z,96595.78
2023-04-17T08:19:12.045Z,96608.03
2023-04-17T08:21:39.721Z,96597.84
2023-04-17T08:24:07.859Z,96597.25
2023-04-17T08:26:35.364Z,96598.88
2023-04-17T08:29:04.636Z,96605.47
2023-04-17T08:31:32.286Z,96610.41
2023-04-17T08:34:12.974Z,96612.81
2023-04-17T08:36:41.635Z,96625.22
2023-04-17T08:39:10.018Z,96612.91
2023-04-17T08:41:45.182Z,96623.22
2023-04-17T08:44:12.804Z,96623.16
2023-04-17T08:46:40.800Z,96612.75
2023-04-17T08:49:09.713Z,96611.59
2023-04-17T08:51:37.167Z,96615.28
2023-04-17T08:54:04.821Z,96623.47
2023-04-17T08:56:32.292Z,96613.47
2023-04-17T08:58:59.753Z,96611.94
2023-04-17T09:01:29.763Z,96614.44
2023-04-17T09:03:57.988Z,96609.41
2023-04-17T09:06:27.510Z,96603.78
2023-04-17T09:08:56.735Z,96611.25
2023-04-17T09:11:24.295Z,96612.63
2023-04-17T09:13:51.985Z,96610.44
2023-04-17T09:16:20.586Z,96612.66
2023-04-17T09:18:49.407Z,96609.88
2023-04-17T09:21:19.513Z,96596.66
2023-04-17T09:23:50.986Z,96603.75
2023-04-17T09:26:20.892Z,96603.38
2023-04-17T09:29:07.579Z,96597.94
2023-04-17T09:31:36.196Z,96590.84
2023-04-17T09:34:05.228Z,96598.81
2023-04-17T09:36:35.129Z,96603.28
2023-04-17T09:39:05.327Z,96605.13
2023-04-17T09:41:36.297Z,96596.28
2023-04-17T09:44:05.511Z,96598.03
2023-04-17T09:46:38.891Z,96600.13
2023-04-17T09:49:11.298Z,96600.13
2023-04-17T09:51:39.542Z,96601.25
2023-04-17T09:54:11.602Z,96598.13
2023-04-17T09:56:39.891Z,96607.94
2023-04-17T09:59:08.594Z,96597.69
2023-04-17T10:01:38.108Z,96599.84
2023-04-17T10:04:06.731Z,96601.25
2023-04-17T10:06:36.010Z,96591.88
2023-04-17T10:09:04.287Z,96593.50
2023-04-17T10:11:42.494Z,96591.81
2023-04-17T10:14:14.781Z,96592.09
2023-04-17T10:16:43.757Z,96584.56
2023-04-17T10:19:30.271Z,96600.41
2023-04-17T10:22:40.935Z,96598.94
2023-04-17T10:25:22.508Z,96593.59
2023-04-17T10:27:53.545Z,96589.06
2023-04-17T10:30:23.433Z,96592.75
2023-04-17T10:33:24.794Z,96590.63
2023-04-17T10:35:53.667Z,96582.63
2023-04-17T10:38:34.685Z,96581.16
2023-04-17T10:41:04.781Z,96570.25
2023-04-17T10:43:33.924Z,96571.25
2023-04-17T10:46:06.481Z,96575.91
2023-04-17T10:48:36.014Z,96564.16
2023-04-17T10:51:42.343Z,96572.00
2023-04-17T10:54:13.533Z,96582.09
2023-04-17T10:56:43.020Z,96574.94
2023-04-17T10:59:13.570Z,96584.94
2023-04-17T11:01:59.486Z,96586.25
2023-04-17T11:04:29.661Z,96586.25
2023-04-17T11:06:57.331Z,96590.22
2023-04-17T11:09:26.565Z,96594.19
2023-04-17T11:11:54.186Z,96585.75
2023-04-17T11:14:24.340Z,96586.00
2023-04-17T11:16:53.106Z,96585.19
2023-04-17T11:19:23.003Z,96573.81
2023-04-17T11:21:52.272Z,96570.28
2023-04-17T11:24:23.874Z,96568.31
2023-04-17T11:26:51.589Z,96556.75
2023-04-17T11:29:21.072Z,96563.16
2023-04-17T11:31:51.825Z,96571.06
2023-04-17T11:34:19.876Z,96572.59
2023-04-17T11:36:51.046Z,96576.94
2023-04-17T11:39:19.006Z,96591.44
2023-04-17T11:41:46.848Z,96588.25
2023-04-17T11:44:15.258Z,96573.72
2023-04-17T11:46:42.783Z,96563.91
2023-04-17T11:49:12.633Z,96565.25
2023-04-17T11:51:43.044Z,96565.50
2023-04-17T11:54:10.747Z,96570.56
2023-04-17T11:56:38.364Z,96568.38
2023-04-17T11:59:06.401Z,96575.69
2023-04-17T12:01:33.996Z,96581.66
2023-04-17T12:04:01.606Z,96574.41
2023-04-17T12:06:38.374Z,96580.22
2023-04-17T12:09:07.100Z,96573.72
2023-04-17T12:11:34.805Z,96583.53
2023-04-17T12:14:03.748Z,96579.19
2023-04-17T12:16:31.466Z,96582.22
2023-04-17T12:18:59.065Z,96583.28
2023-04-17T12:21:26.653Z,96594.41
2023-04-17T12:23:55.469Z,96594.06
2023-04-17T12:26:24.941Z,96588.81
2023-04-17T12:28:52.434Z,96588.13
2023-04-17T12:33:47.527Z,96587.94
2023-04-17T12:36:15.054Z,96587.75
2023-04-17T12:38:43.249Z,96583.31
2023-04-17T12:41:12.078Z,96593.44
2023-04-17T12:43:39.536Z,96594.66
2023-04-17T12:46:07.094Z,96586.19
2023-04-17T12:48:34.941Z,96586.44
2023-04-17T12:51:02.441Z,96589.59
2023-04-17T12:53:30.351Z,96570.13
2023-04-17T12:55:58.433Z,96573.53
2023-04-17T12:58:27.300Z,96575.78
2023-04-17T13:00:54.844Z,96572.72
2023-04-17T13:03:22.493Z,96566.81
2023-04-17T13:05:52.706Z,96561.25
2023-04-17T13:08:20.306Z,96564.53
2023-04-17T13:10:47.787Z,96555.38
2023-04-17T13:13:15.253Z,96561.97
2023-04-17T13:15:45.914Z,96558.66
2023-04-17T13:18:13.432Z,96560.66
2023-04-17T13:20:41.121Z,96555.19
2023-04-17T13:23:11.703Z,96558.41
2023-04-17T13:25:39.230Z,96552.81
2023-04-17T13:28:06.795Z,96557.44
2023-04-17T13:30:36.939Z,96552.38
2023-04-17T13:33:05.945Z,96551.44
2023-04-17T13:35:33.484Z,96547.03
2023-04-17T13:38:03.036Z,96552.84
2023-04-17T13:40:31.049Z,96551.97
2023-04-17T13:42:58.528Z,96544.63
2023-04-17T13:45:26.011Z,96551.16
2023-04-17T13:47:53.766Z,96547.16
2023-04-17T13:50:22.727Z,96537.38
2023-04-17T13:52:50.270Z,96535.78
2023-04-17T13:55:17.924Z,96529.09
2023-04-17T13:57:45.398Z,96535.50
2023-04-17T14:00:14.297Z,96535.03
2023-04-17T14:02:42.648Z,96532.78
2023-04-17T14:05:11.177Z,96522.94
2023-04-17T14:07:40.460Z,96521.38
2023-04-17T14:10:09.934Z,96520.72
2023-04-17T14:12:37.469Z,96530.50
2023-04-17T14:15:06.468Z,96522.59
2023-04-17T14:17:34.359Z,96518.22
2023-04-17T14:20:01.925Z,96517.22
2023-04-17T14:22:29.426Z,96518.88
2023-04-17T14:24:58.261Z,96528.06
2023-04-17T14:27:25.875Z,96521.28
2023-04-17T14:29:53.349Z,96529.84
2023-04-17T14:32:20.866Z,96524.97
2023-04-17T14:34:48.409Z,96528.06
2023-04-17T14:37:15.978Z,96523.94
2023-04-17T14:39:43.454Z,96527.84
2023-04-17T14:42:12.238Z,96520.63
2023-04-17T14:44:39.737Z,96515.16
2023-04-17T14:47:08.098Z,96514.91
2023-04-17T14:49:35.717Z,96518.31
2023-04-17T14:52:03.202Z,96506.50
2023-04-17T14:54:30.871Z,96517.59
2023-04-17T14:56:58.625Z,96503.44
2023-04-17T14:59:28.443Z,96513.69
2023-04-17T15:01:56.123Z,96501.53
2023-04-17T15:04:24.014Z,96502.22
2023-04-17T15:06:51.628Z,96513.47
2023-04-17T15:09:19.176Z,96508.09
2023-04-17T15:11:47.423Z,96510.16
2023-04-17T15:14:14.950Z,96510.88
2023-04-17T15:16:43.765Z,96506.63
2023-04-17T15:19:11.531Z,96514.72
2023-04-17T15:21:39.148Z,96518.38
2023-04-17T15:24:07.414Z,96511.78
2023-04-17T15:26:35.474Z,96515.19
2023-04-17T15:29:03.689Z,96516.31
2023-04-17T15:31:31.162Z,96511.47
2023-04-17T15:33:59.959Z,96520.94
2023-04-17T15:36:32.132Z,96510.03
2023-04-17T15:38:59.635Z,96501.63
2023-04-17T15:41:27.256Z,96506.16
2023-04-17T15:43:54.740Z,96504.63
2023-04-17T15:46:22.351Z,96501.09
2023-04-17T15:49:01.148Z,96503.69
2023-04-17T15:51:37.283Z,96496.22
2023-04-17T15:54:05.754Z,96506.91
2023-04-17T15:56:33.312Z,96500.16
2023-04-17T15:59:00.888Z,96507.00
2023-04-17T16:01:28.630Z,96506.84
2023-04-17T16:03:56.328Z,96503.56
2023-04-17T16:06:23.991Z,96504.47
2023-04-17T16:08:52.860Z,96501.19
2023-04-17T16:11:20.544Z,96504.47
2023-04-17T16:13:47.997Z,96503.31
2023-04-17T16:16:15.910Z,96504.63
2023-04-17T16:18:43.408Z,96512.94
2023-04-17T16:21:11.986Z,96508.94
2023-04-17T16:23:39.476Z,96512.78
2023-04-17T16:26:08.466Z,96512.06
2023-04-17T16:28:36.187Z,96507.97
2023-04-17T16:31:03.690Z,96503.94
2023-04-17T16:33:31.201Z,96513.66
2023-04-17T16:35:58.681Z,96510.28
2023-04-17T16:38:27.555Z,96514.69
2023-04-17T16:40:57.026Z,96500.81
2023-04-17T16:43:25.872Z,96509.47
2023-04-17T16:45:53.330Z,96515.94
2023-04-17T16:48:20.881Z,96517.09
2023-04-17T16:50:48.593Z,96517.94
2023-04-17T16:53:16.070Z,96520.38
2023-04-17T16:55:43.625Z,96521.56
2023-04-17T16:58:12.108Z,96535.56
2023-04-17T17:00:40.905Z,96520.75
2023-04-17T17:03:08.558Z,96526.41
2023-04-17T17:05:36.959Z,96540.03
2023-04-17T17:08:04.437Z,96536.69
2023-04-17T17:10:31.866Z,96542.84
2023-04-17T17:12:59.331Z,96540.97
2023-04-17T17:15:26.815Z,96543.00
2023-04-17T17:17:55.762Z,96546.00
2023-04-17T17:20:23.308Z,96562.13
2023-04-17T17:22:50.890Z,96561.72
2023-04-17T17:25:18.573Z,96561.69
2023-04-17T17:27:46.089Z,96562.28
2023-04-17T17:30:14.527Z,96563.09
2023-04-17T17:32:42.110Z,96574.88
2023-04-17T17:35:11.239Z,96580.34
2023-04-17T17:37:38.708Z,96584.19
2023-04-17T17:40:07.527Z,96597.31
2023-04-17T17:42:35.180Z,96589.00
2023-04-17T17:45:02.817Z,96591.31
2023-04-17T17:47:30.665Z,96600.66
2023-04-17T17:49:58.396Z,96602.72
2023-04-17T17:52:27.371Z,96600.75
2023-04-17T17:54:54.854Z,96607.16
2023-04-17T17:57:22.343Z,96616.69
2023-04-17T17:59:49.901Z,96614.84
2023-04-17T18:02:17.551Z,96619.91
2023-04-17T18:04:49.026Z,96616.38
2023-04-17T18:07:16.640Z,96617.56
2023-04-17T18:09:46.375Z,96618.84
2023-04-17T18:12:14.855Z,96633.66
2023-04-17T18:14:42.321Z,96644.03
2023-04-17T18:17:09.904Z,96647.63
2023-04-17T18:19:40.731Z,96646.66
2023-04-17T18:22:08.421Z,96651.56
2023-04-17T18:24:35.967Z,96651.56
2023-04-17T18:27:04.940Z,96656.06
2023-04-17T18:29:33.834Z,96663.03
2023-04-17T18:32:01.347Z,96669.16
2023-04-17T18:34:28.857Z,96666.06
2023-04-17T18:36:58.470Z,96671.50
2023-04-17T18:39:26.067Z,96664.41
2023-04-17T18:41:53.560Z,96668.38
2023-04-17T18:44:22.773Z,96670.47
2023-04-17T18:46:50.441Z,96682.56
2023-04-17T18:49:18.126Z,96675.59
2023-04-17T18:51:47.841Z,96687.97
2023-04-17T18:54:15.939Z,96688.97
2023-04-17T18:56:43.634Z,96685.84
2023-04-17T18:59:11.619Z,96685.63
2023-04-17T19:01:42.613Z,96679.88
2023-04-17T19:04:10.491Z,96684.84
2023-04-17T19:06:38.221Z,96685.78
2023-04-17T19:09:05.729Z,96688.28
2023-04-17T19:11:33.513Z,96688.97
2023-04-17T19:14:01.015Z,96698.44
2023-04-17T19:16:28.593Z,96692.06
2023-04-17T19:18:57.515Z,96700.13
2023-04-17T19:21:25.013Z,96697.75
2023-04-17T19:23:52.503Z,96702.34
2023-04-17T19:26:19.993Z,96701.50
2023-04-17T19:28:47.481Z,96698.47
2023-04-17T19:31:14.992Z,96692.59
2023-04-17T19:33:42.507Z,96700.94
2023-04-17T19:36:11.352Z,96693.00
2023-04-17T19:38:38.840Z,96698.78
2023-04-17T19:41:17.710Z,96702.03
2023-04-17T19:43:46.012Z,96695.88
2023-04-17T19:46:14.570Z,96694.31
2023-04-17T19:48:43.582Z,96693.22
2023-04-17T19:51:13.317Z,96693.69
2023-04-17T19:53:42.645Z,96701.22
2023-04-17T19:56:10.857Z,96696.59
2023-04-17T19:58:39.303Z,96690.00
2023-04-17T20:01:06.807Z,96690.44
2023-04-17T20:03:35.415Z,96682.38
2023-04-17T20:06:03.539Z,96684.72
2023-04-17T20:08:32.393Z,96684.00
2023-04-17T20:10:59.932Z,96682.75
2023-04-17T20:13:27.954Z,96682.66
2023-04-17T20:15:55.521Z,96682.06
2023-04-17T20:18:23.041Z,96686.25
2023-04-17T20:20:50.574Z,96687.50
2023-04-17T20:23:18.039Z,96675.84
2023-04-17T20:25:46.885Z,96686.09
2023-04-17T20:28:14.463Z,96687.91
2023-04-17T20:30:41.917Z,96674.97
2023-04-17T20:33:09.485Z,96671.56
2023-04-17T20:35:37.028Z,96674.09
2023-04-17T20:38:04.620Z,96669.09
2023-04-17T20:40:32.127Z,96679.00
2023-04-17T20:43:01.059Z,96672.53
2023-04-17T20:45:28.837Z,96674.78
2023-04-17T20:47:57.220Z,96677.28
2023-04-17T20:50:25.420Z,96673.84
2023-04-17T20:52:52.915Z,96679.53
2023-04-17T20:55:20.818Z,96681.38
2023-04-17T20:57:48.680Z,96683.06
2023-04-17T21:00:17.813Z,96668.00
2023-04-17T21:02:45.892Z,96671.44
2023-04-17T21:05:13.413Z,96660.28
2023-04-17T21:07:40.884Z,96668.56
2023-04-17T21:10:09.330Z,96676.38
2023-04-17T21:12:36.782Z,96672.75
2023-04-17T21:15:04.590Z,96672.69
2023-04-17T21:17:33.424Z,96668.41
2023-04-17T21:20:00.890Z,96669.34
2023-04-17T21:22:28.354Z,96665.72
2023-04-17T21:24:55.810Z,96670.97
2023-04-17T21:27:23.750Z,96667.38
2023-04-17T21:29:51.281Z,96664.44
2023-04-17T21:32:18.796Z,96665.16
2023-04-17T21:34:47.632Z,96671.81
2023-04-17T21:37:15.125Z,96666.25
2023-04-17T21:39:42.598Z,96669.56
2023-04-17T21:42:10.695Z,96669.41
2023-04-17T21:44:38.132Z,96660.66
2023-04-17T21:47:05.666Z,96659.22
2023-04-17T21:49:33.147Z,96668.41
2023-04-17T21:52:02.042Z,96656.91
2023-04-17T21:54:29.568Z,96658.16
2023-04-17T21:56:57.017Z,96659.78
2023-04-17T21:59:24.882Z,96665.59
2023-04-17T22:01:52.375Z,96662.50
2023-04-17T22:04:19.944Z,96661.97
2023-04-17T22:06:47.499Z,96662.25
2023-04-17T22:09:16.461Z,96667.16
2023-04-17T22:11:43.952Z,96666.00
2023-04-17T22:14:11.802Z,96667.69
2023-04-17T22:16:39.437Z,96663.38
2023-04-17T22:19:07.141Z,96656.03
2023-04-17T22:21:34.617Z,96659.94
2023-04-17T22:24:02.143Z,96659.69
2023-04-17T22:26:31.538Z,96654.41
2023-04-17T22:28:58.981Z,96654.41
2023-04-17T22:31:26.491Z,96655.03
2023-04-17T22:33:53.966Z,96654.19
2023-04-17T22:36:21.427Z,96652.25
2023-04-17T22:38:48.897Z,96664.63
2023-04-17T22:41:16.338Z,96651.41
2023-04-17T22:43:48.653Z,96660.31
2023-04-17T22:46:16.606Z,96646.19
2023-04-17T22:48:45.044Z,96650.69
2023-04-17T22:51:13.525Z,96643.09
2023-04-17T22:53:41.046Z,96652.41
2023-04-17T22:56:12.784Z,96653.91
2023-04-17T22:58:40.320Z,96662.13
2023-04-17T23:01:09.188Z,96657.75
2023-04-17T23:03:36.725Z,96646.97
2023-04-17T23:06:04.916Z,96648.38
2023-04-17T23:08:32.387Z,96649.22
2023-04-17T23:11:00.945Z,96655.50
2023-04-17T23:13:28.890Z,96648.84
2023-04-17T23:15:56.433Z,96652.41
2023-04-17T23:18:25.410Z,96649.94
2023-04-17T23:20:52.896Z,96652.66
2023-04-17T23:23:20.603Z,96650.00
2023-04-17T23:25:48.193Z,96655.03
2023-04-17T23:28:15.780Z,96647.28
2023-04-17T23:30:43.281Z,96643.09
2023-04-17T23:33:10.760Z,96642.28
2023-04-17T23:35:39.559Z,96634.47
2023-04-17T23:38:07.081Z,96636.41
2023-04-17T23:40:35.721Z,96632.59
2023-04-17T23:43:03.200Z,96636.66
2023-04-17T23:45:30.683Z,96634.00
2023-04-17T23:47:58.194Z,96634.72
2023-04-17T23:50:25.973Z,96639.66
2023-04-17T23:52:55.130Z,96629.84
2023-04-17T23:55:25.708Z,96629.44
2023-04-17T23:57:53.235Z,96624.16
